Αρχική σελίδα
METAR-TAF:

METAR-TAF

Αεροδρόμια :

Κιλιμάντζαρο, Τανζανία

γεωγραφικό πλάτος: 03-25S, γεωγραφικό μήκος: 037-04E, υψόμετρο: 891 μ

Παρών καιρός

Η αναφορά έγινε 46 λεπτά πριν, στις 16:00 UTC
Άνεμος 10 kt από Α
Θερμοκρασία 22°C
Υγρασία 57%
Πίεση 1019 hPa
Ορατότητα 10 χλμ και άνω
Λίγα νέφη σε ύψος 2800 πόδια
Διάσπαρτα νέφη σε ύψος 8000 πόδια

METAR: HTKJ 201600Z 09010KT 9999 FEW028 SCT080 22/13 Q1019 NOSIG

Χρόνος: 19:46 (16:46 UTC)

Πρόγνωση Καιρού

Η αναφορά έγινε 5 ώρες και 46 λεπτά πριν, στις 11:00 UTC
Η πρόγνωση ισχύει από τις 20 στις 12 UTC έως τις 21 στις 12 UTC
Άνεμος 5 kt από Α
Ορατότητα 10 χλμ και άνω
Διάσπαρτα νέφη σε ύψος 2800 πόδια
Αρκετά νέφη σε ύψος 8000 πόδια
Καθιστάμενος
από 20 στις 16 UTC έως τις 20 στις 19 UTC
Άνεμος kt από Β
Διάσπαρτα νέφη σε ύψος 2500 πόδια

TAF: HTKJ 201100Z 2012/2112 09005KT 9999 SCT028 BKN080 BECMG 2016/2019 00000KT SCT025

Μετεωρολογικές αναφορές και προγνώσεις για περισσότερα από 4000 αεροδρόμια (δελτία METAR και TAF).

Οι διαθέσιμοι σταθμοί απεικονίζονται στο χάρτη με κίτρινες και κόκκινες κουκκίδες.

Μετακινήστε το ποντίκι πάνω από τις κουκκίδες για να δείτε το όνομα του σταθμού.

Στη συνέχεια, κάντε κλικ για να δείτε τις μετεωρολογικές αναφορές και τις προγνώσεις καιρού.

Για να αλλάξετε το χάρτη: κάντε κλικ στα πράσινα κουμπιά με τον μαύρο σταυρό για να ζουμάρετε, στο πράσινο κουμπί με την παύλα για να αφαιρέσετε το ζουμ ή στα πράσινα βέλη για να αντιπαραβάλλετε χάρτες.


METAR-TAF: